Terminal Aerodrome Forecast
Issued by NWS Charleston, WV

Home | Current Version | Previous Version | Text Only | Print | Product List | Glossary On
Versions: 1 2 3 4 5 6 7 8 9 10 11 12 13 14 15 16 17 18 19 20 21 22 23
000
FTUS41 KRLX 291739
TAFHTS
TAF
KHTS 291739Z 2918/3018 20007KT P6SM BKN060
     FM292100 21008KT P6SM VCTS BKN040CB
     FM301200 00000KT P6SM BKN025
     FM301700 23007KT P6SM VCTS BKN040CB=

USA.gov is the U.S. government's official web portal to all federal, state and local government web resources and services.